Time;durP1;ratioP1;P1;durP2;ratioP2;P2;SDS_P1;SDS_P2;PMS_P1;PMS_P2;Temp;Humidity;BMP_temperature;BMP_pressure;BME280_temperature;BME280_humidity;BME280_pressure;Samples;Min_cycle;Max_cycle;Signal;HPM_P1;HPM_P2
2022/11/09 00:01:28;;;;;;;34.63;15.23;;;;;;;;;;4895666;29;20051;-73
2022/11/09 00:03:58;;;;;;;28.17;14.95;;;;;;;;;;4912306;29;20513;-72
2022/11/09 00:06:24;;;;;;;30.92;16.02;;;;;;;;;;4912235;29;20128;-72
2022/11/09 00:08:50;;;;;;;33.00;17.38;;;;;;;;;;4910991;29;20073;-73
2022/11/09 00:11:16;;;;;;;44.38;21.08;;;;;;;;;;4912598;29;20036;-73
2022/11/09 00:13:42;;;;;;;16.70;12.57;;;;;;;;;;4895221;29;20040;-73
2022/11/09 00:16:08;;;;;;;27.67;16.02;;;;;;;;;;4912471;29;20551;-72
2022/11/09 00:18:34;;;;;;;24.42;15.43;;;;;;;;;;4926589;29;20530;-73
2022/11/09 00:21:07;;;;;;;31.08;17.55;;;;;;;;;;4895757;29;20040;-73
2022/11/09 00:23:33;;;;;;;31.88;18.02;;;;;;;;;;4910863;29;20051;-74
2022/11/09 00:25:59;;;;;;;32.33;16.83;;;;;;;;;;4895136;29;20551;-73
2022/11/09 00:28:25;;;;;;;26.73;14.02;;;;;;;;;;4912017;29;20123;-73
2022/11/09 00:31:02;;;;;;;29.45;13.57;;;;;;;;;;4926838;29;20055;-72
2022/11/09 00:33:28;;;;;;;31.20;18.40;;;;;;;;;;4911927;29;20035;-72
2022/11/09 00:35:54;;;;;;;33.80;16.40;;;;;;;;;;4912188;29;20119;-74
2022/11/09 00:38:20;;;;;;;34.08;15.73;;;;;;;;;;4912773;29;20627;-74
2022/11/09 00:40:46;;;;;;;29.70;17.05;;;;;;;;;;4911948;29;20391;-73
2022/11/09 00:43:12;;;;;;;27.63;15.05;;;;;;;;;;4927462;29;20056;-72
2022/11/09 00:45:39;;;;;;;33.08;16.48;;;;;;;;;;4912146;29;20056;-72
2022/11/09 00:48:05;;;;;;;31.17;15.82;;;;;;;;;;4915399;29;20063;-73
2022/11/09 00:50:31;;;;;;;39.80;21.58;;;;;;;;;;4915341;29;20513;-73
2022/11/09 00:52:57;;;;;;;42.83;20.88;;;;;;;;;;4882493;29;20028;-73
2022/11/09 00:55:23;;;;;;;32.67;18.35;;;;;;;;;;4929813;29;20087;-72
2022/11/09 00:57:49;;;;;;;36.10;17.42;;;;;;;;;;4930040;29;20044;-72
2022/11/09 01:00:16;;;;;;;24.83;12.93;;;;;;;;;;4914031;29;20067;-73
2022/11/09 01:02:42;;;;;;;29.15;16.83;;;;;;;;;;4913816;29;20036;-72
2022/11/09 01:05:08;;;;;;;33.08;16.20;;;;;;;;;;4913839;29;20406;-73
2022/11/09 01:07:35;;;;;;;32.67;16.83;;;;;;;;;;4915064;29;20079;-72
2022/11/09 01:10:03;;;;;;;37.03;17.25;;;;;;;;;;4913772;29;20043;-72
2022/11/09 01:12:29;;;;;;;35.17;16.92;;;;;;;;;;4913661;29;20036;-72
2022/11/09 01:14:55;;;;;;;21.15;14.85;;;;;;;;;;4914944;29;20043;-72
2022/11/09 01:17:21;;;;;;;20.48;12.68;;;;;;;;;;4915323;29;20039;-72
2022/11/09 01:19:47;;;;;;;33.85;18.48;;;;;;;;;;4897712;29;20036;-73
2022/11/09 01:22:13;;;;;;;25.23;15.70;;;;;;;;;;4914859;29;20055;-72
2022/11/09 01:24:39;;;;;;;34.90;18.95;;;;;;;;;;4929203;29;20416;-73
2022/11/09 01:27:05;;;;;;;32.72;17.63;;;;;;;;;;4914694;29;20066;-73
2022/11/09 01:29:31;;;;;;;36.10;18.33;;;;;;;;;;4914590;29;20040;-71
2022/11/09 01:31:57;;;;;;;41.83;18.70;;;;;;;;;;4915300;29;20087;-74
2022/11/09 01:34:23;;;;;;;34.45;16.40;;;;;;;;;;4916326;29;20509;-73
2022/11/09 01:36:50;;;;;;;43.08;21.45;;;;;;;;;;4898706;29;20046;-73
2022/11/09 01:39:16;;;;;;;37.88;19.73;;;;;;;;;;4929117;29;20172;-73
2022/11/09 01:41:42;;;;;;;40.38;19.27;;;;;;;;;;4913245;29;20329;-73
2022/11/09 01:44:11;;;;;;;43.03;22.73;;;;;;;;;;4914824;29;20123;-73
2022/11/09 01:46:40;;;;;;;25.48;15.55;;;;;;;;;;4897530;29;20146;-72
2022/11/09 01:49:30;;;;;;;24.20;14.07;;;;;;;;;;4914466;29;20123;-74
2022/11/09 01:52:04;;;;;;;34.67;17.95;;;;;;;;;;4904694;29;20053;-73
2022/11/09 01:54:30;;;;;;;39.90;18.92;;;;;;;;;;4894243;29;20549;-72
2022/11/09 01:56:58;;;;;;;27.60;14.18;;;;;;;;;;4910204;29;20037;-72
2022/11/09 01:59:25;;;;;;;12.63;7.60;;;;;;;;;;4893556;29;20519;-73
2022/11/09 02:01:51;;;;;;;21.58;12.13;;;;;;;;;;4894176;29;20047;-73
2022/11/09 02:04:19;;;;;;;39.70;19.42;;;;;;;;;;4894113;29;20064;-73
2022/11/09 02:06:45;;;;;;;40.65;18.52;;;;;;;;;;4895094;29;20421;-74
2022/11/09 02:09:15;;;;;;;35.58;18.67;;;;;;;;;;4909556;29;20036;-73
2022/11/09 02:11:42;;;;;;;32.95;15.60;;;;;;;;;;4894113;29;20044;-74
2022/11/09 02:14:08;;;;;;;42.75;19.38;;;;;;;;;;4894723;29;20040;-73
2022/11/09 02:16:33;;;;;;;42.53;19.77;;;;;;;;;;4894323;29;20045;-73
2022/11/09 02:19:00;;;;;;;51.22;21.17;;;;;;;;;;4894291;29;20517;-73
2022/11/09 02:21:27;;;;;;;41.42;18.80;;;;;;;;;;4894216;29;20044;-73
2022/11/09 02:23:53;;;;;;;41.95;19.55;;;;;;;;;;4909487;29;20055;-74
2022/11/09 02:26:39;;;;;;;51.83;25.85;;;;;;;;;;4893743;29;20060;-75
2022/11/09 02:29:06;;;;;;;35.08;16.77;;;;;;;;;;4893419;29;20053;-75
2022/11/09 02:31:37;;;;;;;46.45;21.90;;;;;;;;;;4893565;29;20043;-74
2022/11/09 02:34:13;;;;;;;38.28;19.02;;;;;;;;;;4893604;29;20108;-74
2022/11/09 02:36:42;;;;;;;30.95;17.10;;;;;;;;;;4893600;29;20064;-74
2022/11/09 02:39:12;;;;;;;48.15;22.40;;;;;;;;;;4893517;29;20054;-73
2022/11/09 02:41:41;;;;;;;51.53;23.45;;;;;;;;;;4895014;29;20127;-72
2022/11/09 02:44:07;;;;;;;40.22;19.50;;;;;;;;;;4913484;29;20421;-73
2022/11/09 02:46:34;;;;;;;43.35;20.90;;;;;;;;;;4919988;29;20139;-74
2022/11/09 02:49:00;;;;;;;56.55;24.50;;;;;;;;;;4927084;29;20063;-73
2022/11/09 02:51:26;;;;;;;49.05;20.35;;;;;;;;;;4924590;29;20040;-75
2022/11/09 02:53:53;;;;;;;34.90;15.27;;;;;;;;;;4912015;29;20393;-74
2022/11/09 02:56:20;;;;;;;49.08;21.40;;;;;;;;;;4912555;29;20641;-74
2022/11/09 02:58:46;;;;;;;46.78;18.73;;;;;;;;;;4911702;29;20064;-74
2022/11/09 03:01:12;;;;;;;39.53;18.65;;;;;;;;;;4911583;29;20040;-75
2022/11/09 03:03:39;;;;;;;52.63;22.73;;;;;;;;;;4911370;29;20047;-74
2022/11/09 03:06:04;;;;;;;46.78;19.15;;;;;;;;;;4911549;29;20040;-73
2022/11/09 03:08:31;;;;;;;56.67;20.35;;;;;;;;;;4899031;29;20128;-74
2022/11/09 03:10:58;;;;;;;33.05;15.82;;;;;;;;;;4912141;29;20067;-72
2022/11/09 03:13:24;;;;;;;42.38;17.70;;;;;;;;;;4911896;29;20449;-73
2022/11/09 03:15:50;;;;;;;52.22;20.17;;;;;;;;;;4911549;29;20072;-74
2022/11/09 03:18:16;;;;;;;48.60;18.40;;;;;;;;;;4927399;29;20032;-73
2022/11/09 03:20:41;;;;;;;50.17;21.25;;;;;;;;;;4927110;29;20536;-75
2022/11/09 03:23:09;;;;;;;44.13;17.83;;;;;;;;;;4911645;29;20047;-72
2022/11/09 03:25:37;;;;;;;46.67;18.08;;;;;;;;;;4911540;29;20055;-74
2022/11/09 03:28:04;;;;;;;54.38;23.38;;;;;;;;;;4911701;29;20140;-73
2022/11/09 03:30:30;;;;;;;45.85;20.20;;;;;;;;;;4911609;29;20111;-73
2022/11/09 03:33:01;;;;;;;47.40;19.92;;;;;;;;;;4911402;29;20501;-73
2022/11/09 03:35:27;;;;;;;44.45;18.48;;;;;;;;;;4910933;29;20040;-73
2022/11/09 03:37:53;;;;;;;48.80;22.70;;;;;;;;;;4903353;29;20560;-73
2022/11/09 03:40:19;;;;;;;45.22;18.33;;;;;;;;;;4926492;29;20505;-74
2022/11/09 03:42:48;;;;;;;40.03;17.88;;;;;;;;;;4911690;29;20059;-74
2022/11/09 03:45:14;;;;;;;34.55;17.88;;;;;;;;;;4911393;29;20051;-75
2022/11/09 03:47:41;;;;;;;28.48;14.40;;;;;;;;;;4912401;29;20139;-75
2022/11/09 03:50:07;;;;;;;30.70;16.58;;;;;;;;;;4912557;29;20039;-75
2022/11/09 03:52:33;;;;;;;32.80;15.80;;;;;;;;;;4911645;29;20051;-74
2022/11/09 03:54:59;;;;;;;36.35;18.25;;;;;;;;;;4911309;29;20028;-74
2022/11/09 03:57:25;;;;;;;29.85;16.55;;;;;;;;;;4912819;29;20071;-74
2022/11/09 03:59:51;;;;;;;31.30;16.67;;;;;;;;;;4912069;29;20040;-76
2022/11/09 04:02:17;;;;;;;42.67;21.40;;;;;;;;;;4911312;29;20056;-74
2022/11/09 04:04:43;;;;;;;49.53;19.67;;;;;;;;;;4912313;29;20035;-75
2022/11/09 04:07:09;;;;;;;52.65;21.55;;;;;;;;;;4926929;29;20143;-74
2022/11/09 04:09:36;;;;;;;48.38;21.73;;;;;;;;;;4912344;29;20062;-75
2022/11/09 04:12:02;;;;;;;65.28;24.98;;;;;;;;;;4911272;29;20122;-75
2022/11/09 04:14:28;;;;;;;61.10;25.60;;;;;;;;;;4908463;29;20508;-74
2022/11/09 04:16:54;;;;;;;42.90;20.42;;;;;;;;;;4912166;29;20072;-74
2022/11/09 04:19:20;;;;;;;49.20;22.67;;;;;;;;;;4925988;29;20056;-75
2022/11/09 04:21:45;;;;;;;40.72;20.65;;;;;;;;;;4912422;29;20067;-75
2022/11/09 04:24:11;;;;;;;50.20;24.17;;;;;;;;;;4914287;29;20128;-73
2022/11/09 04:26:37;;;;;;;41.00;21.13;;;;;;;;;;4913597;29;20071;-74
2022/11/09 04:29:03;;;;;;;36.65;16.98;;;;;;;;;;4905752;29;20036;-74
2022/11/09 04:31:29;;;;;;;41.60;20.20;;;;;;;;;;4912956;29;20405;-73
2022/11/09 04:33:55;;;;;;;36.15;18.63;;;;;;;;;;4917689;29;20036;-75
2022/11/09 04:36:21;;;;;;;23.23;13.57;;;;;;;;;;4896732;29;20476;-74
2022/11/09 04:38:47;;;;;;;24.98;14.95;;;;;;;;;;4912450;29;20036;-73
2022/11/09 04:41:13;;;;;;;31.55;18.63;;;;;;;;;;4914603;29;20531;-75
2022/11/09 04:43:39;;;;;;;32.70;17.92;;;;;;;;;;4914030;29;20058;-72
2022/11/09 04:46:05;;;;;;;31.92;17.45;;;;;;;;;;4908403;29;20064;-72
2022/11/09 04:48:31;;;;;;;26.80;15.27;;;;;;;;;;4896963;29;20032;-73
2022/11/09 04:51:00;;;;;;;31.38;16.98;;;;;;;;;;4895319;29;20048;-74
2022/11/09 04:53:26;;;;;;;37.75;18.40;;;;;;;;;;4879917;29;20036;-74
2022/11/09 04:55:53;;;;;;;30.92;17.73;;;;;;;;;;4895118;29;20028;-73
2022/11/09 04:58:18;;;;;;;32.78;17.63;;;;;;;;;;4895391;29;20517;-74
2022/11/09 05:00:44;;;;;;;23.90;12.32;;;;;;;;;;4894877;29;20044;-75
2022/11/09 05:03:10;;;;;;;35.47;15.68;;;;;;;;;;4903976;29;20036;-75
2022/11/09 05:05:36;;;;;;;24.15;13.35;;;;;;;;;;4915155;29;20054;-74
2022/11/09 05:08:03;;;;;;;26.83;17.38;;;;;;;;;;4915419;29;20082;-74
2022/11/09 05:10:29;;;;;;;20.75;13.27;;;;;;;;;;4915225;29;20468;-74
2022/11/09 05:13:01;;;;;;;29.30;16.27;;;;;;;;;;4915022;29;20167;-74
2022/11/09 05:15:27;;;;;;;29.50;16.95;;;;;;;;;;4915481;29;20040;-74
2022/11/09 05:17:53;;;;;;;32.03;18.45;;;;;;;;;;4913935;29;20055;-74
2022/11/09 05:20:19;;;;;;;30.25;16.08;;;;;;;;;;4929662;29;20098;-74
2022/11/09 05:25:28;;;;;;;29.73;15.25;;;;;;;;;;4913534;29;20087;-73
2022/11/09 05:27:55;;;;;;;27.80;16.50;;;;;;;;;;4914913;29;20060;-74
2022/11/09 05:30:21;;;;;;;29.10;16.33;;;;;;;;;;4913925;29;20095;-74
2022/11/09 05:32:47;;;;;;;27.48;14.73;;;;;;;;;;4914929;29;20040;-73
2022/11/09 05:35:13;;;;;;;33.30;17.52;;;;;;;;;;4915000;29;20059;-74
2022/11/09 05:37:39;;;;;;;26.48;14.63;;;;;;;;;;4916049;29;20040;-74
2022/11/09 05:40:06;;;;;;;27.52;16.25;;;;;;;;;;4898152;29;20036;-73
2022/11/09 05:42:32;;;;;;;23.00;15.20;;;;;;;;;;4913524;29;20035;-74
2022/11/09 05:44:58;;;;;;;30.35;17.67;;;;;;;;;;4914239;29;20048;-73
2022/11/09 05:47:23;;;;;;;28.10;16.63;;;;;;;;;;4914832;29;20126;-74
2022/11/09 05:49:49;;;;;;;27.27;17.00;;;;;;;;;;4913075;29;20123;-74
2022/11/09 05:52:15;;;;;;;19.63;12.98;;;;;;;;;;4914445;29;20056;-74
2022/11/09 05:54:41;;;;;;;26.65;15.75;;;;;;;;;;4912869;29;20036;-73
2022/11/09 05:57:07;;;;;;;21.65;14.05;;;;;;;;;;4928963;29;20071;-74
2022/11/09 05:59:33;;;;;;;21.60;13.57;;;;;;;;;;4914129;29;20036;-72
2022/11/09 06:01:59;;;;;;;25.60;16.65;;;;;;;;;;4912750;29;20091;-74
2022/11/09 06:04:24;;;;;;;24.25;14.30;;;;;;;;;;4914265;29;20099;-73
2022/11/09 06:06:50;;;;;;;26.60;17.13;;;;;;;;;;4914071;29;20132;-73
2022/11/09 06:09:16;;;;;;;24.92;16.33;;;;;;;;;;4912900;29;20441;-73
2022/11/09 06:11:43;;;;;;;24.05;14.52;;;;;;;;;;4914064;29;20048;-74
2022/11/09 06:14:08;;;;;;;22.08;15.45;;;;;;;;;;4912802;29;20039;-73
2022/11/09 06:16:35;;;;;;;27.88;17.25;;;;;;;;;;4912818;29;20043;-74
2022/11/09 06:19:01;;;;;;;22.73;15.93;;;;;;;;;;4912179;29;20040;-74
2022/11/09 06:21:26;;;;;;;21.23;15.27;;;;;;;;;;4913813;29;20051;-73
2022/11/09 06:23:52;;;;;;;22.08;11.40;;;;;;;;;;4915858;29;20065;-74
2022/11/09 06:26:18;;;;;;;21.02;15.95;;;;;;;;;;4907974;29;20057;-74
2022/11/09 06:28:44;;;;;;;20.73;13.90;;;;;;;;;;4906383;29;20059;-73
2022/11/09 06:31:13;;;;;;;17.55;12.13;;;;;;;;;;4920018;29;20044;-74
2022/11/09 06:33:39;;;;;;;25.80;14.57;;;;;;;;;;4903284;29;20501;-74
2022/11/09 06:36:05;;;;;;;19.67;11.15;;;;;;;;;;4910544;29;20032;-73
2022/11/09 06:38:31;;;;;;;12.30;9.95;;;;;;;;;;4910572;29;20118;-75
2022/11/09 06:40:57;;;;;;;23.77;15.13;;;;;;;;;;4911675;29;20067;-74
2022/11/09 06:43:23;;;;;;;22.48;16.08;;;;;;;;;;4909096;29;20155;-73
2022/11/09 06:45:49;;;;;;;18.45;14.60;;;;;;;;;;4911037;29;20096;-74
2022/11/09 06:48:15;;;;;;;14.27;10.98;;;;;;;;;;4911382;29;20389;-73
2022/11/09 06:50:40;;;;;;;18.13;12.90;;;;;;;;;;4909608;29;20571;-74
2022/11/09 06:53:07;;;;;;;21.70;12.38;;;;;;;;;;4911069;29;20047;-74
2022/11/09 06:55:33;;;;;;;19.60;13.20;;;;;;;;;;4911621;29;20036;-73
2022/11/09 06:57:59;;;;;;;18.58;11.73;;;;;;;;;;4911151;29;20461;-74
2022/11/09 07:00:25;;;;;;;20.08;12.10;;;;;;;;;;4910184;29;20527;-74
2022/11/09 07:02:51;;;;;;;18.13;12.85;;;;;;;;;;4910050;29;20072;-73
2022/11/09 07:05:17;;;;;;;17.30;12.15;;;;;;;;;;4915234;29;20517;-74
2022/11/09 07:07:43;;;;;;;20.88;14.60;;;;;;;;;;4925036;29;20036;-75
2022/11/09 07:10:09;;;;;;;15.57;11.10;;;;;;;;;;4926415;29;20056;-75
2022/11/09 07:12:35;;;;;;;20.65;13.80;;;;;;;;;;4905355;29;20036;-73
2022/11/09 07:15:01;;;;;;;20.50;14.70;;;;;;;;;;4911596;29;20043;-73
2022/11/09 07:17:29;;;;;;;24.35;13.75;;;;;;;;;;4911134;29;20571;-74
2022/11/09 07:19:55;;;;;;;19.23;12.63;;;;;;;;;;4909341;29;20505;-73
2022/11/09 07:22:21;;;;;;;22.30;14.38;;;;;;;;;;4910979;29;20486;-72
2022/11/09 07:24:47;;;;;;;26.25;15.13;;;;;;;;;;4909197;29;20036;-72
2022/11/09 07:27:13;;;;;;;24.08;14.00;;;;;;;;;;4910974;29;20059;-73
2022/11/09 07:29:39;;;;;;;19.20;11.98;;;;;;;;;;4910778;29;20051;-72
2022/11/09 07:32:04;;;;;;;31.83;15.43;;;;;;;;;;4924952;29;20062;-72
2022/11/09 07:34:31;;;;;;;13.88;8.73;;;;;;;;;;4910772;29;20040;-73
2022/11/09 07:36:57;;;;;;;24.15;13.98;;;;;;;;;;4909356;29;20038;-73
2022/11/09 07:39:22;;;;;;;17.17;11.13;;;;;;;;;;4910568;29;20039;-73
2022/11/09 07:41:49;;;;;;;24.23;14.88;;;;;;;;;;4910657;29;20080;-72
2022/11/09 07:44:17;;;;;;;25.13;13.27;;;;;;;;;;4910305;29;20146;-72
2022/11/09 07:46:43;;;;;;;19.90;12.48;;;;;;;;;;4909354;29;20040;-73
2022/11/09 07:49:09;;;;;;;23.83;13.80;;;;;;;;;;4910452;29;20036;-73
2022/11/09 07:51:35;;;;;;;15.93;11.50;;;;;;;;;;4909293;29;20516;-72
2022/11/09 07:54:01;;;;;;;19.92;13.95;;;;;;;;;;4910176;29;20040;-73
2022/11/09 07:56:27;;;;;;;21.30;13.15;;;;;;;;;;4894531;29;20043;-72
2022/11/09 07:58:53;;;;;;;21.20;12.90;;;;;;;;;;4912534;29;20051;-74
2022/11/09 08:01:18;;;;;;;26.08;14.88;;;;;;;;;;4913021;29;20175;-73
2022/11/09 08:03:45;;;;;;;21.65;13.95;;;;;;;;;;4914125;29;20032;-73
2022/11/09 08:06:10;;;;;;;21.33;14.35;;;;;;;;;;4914169;29;20048;-73
2022/11/09 08:08:36;;;;;;;21.90;14.20;;;;;;;;;;4913906;29;20051;-73
2022/11/09 08:11:02;;;;;;;20.52;13.00;;;;;;;;;;4912680;29;20059;-73
2022/11/09 08:13:28;;;;;;;24.33;15.80;;;;;;;;;;4912695;29;20036;-73
2022/11/09 08:15:54;;;;;;;27.30;16.65;;;;;;;;;;4912607;29;20039;-74
2022/11/09 08:18:20;;;;;;;24.42;15.05;;;;;;;;;;4914015;29;20067;-73
2022/11/09 08:20:46;;;;;;;22.63;14.55;;;;;;;;;;4913929;29;20036;-74
2022/11/09 08:23:12;;;;;;;23.02;13.38;;;;;;;;;;4913949;29;20429;-74
2022/11/09 08:25:38;;;;;;;28.45;16.95;;;;;;;;;;4914034;29;20111;-74
2022/11/09 08:28:04;;;;;;;29.33;15.98;;;;;;;;;;4913830;29;20595;-73
2022/11/09 08:30:30;;;;;;;17.15;10.65;;;;;;;;;;4912952;29;20172;-73
2022/11/09 08:32:56;;;;;;;28.08;16.55;;;;;;;;;;4913994;29;20119;-74
2022/11/09 08:35:22;;;;;;;27.38;15.02;;;;;;;;;;4910011;29;20044;-73
2022/11/09 08:37:49;;;;;;;28.35;16.83;;;;;;;;;;4911905;29;20036;-74
2022/11/09 08:40:16;;;;;;;22.52;15.50;;;;;;;;;;4913800;29;20394;-74
2022/11/09 08:42:42;;;;;;;21.42;12.00;;;;;;;;;;4915386;29;20146;-74
2022/11/09 08:45:08;;;;;;;23.50;13.85;;;;;;;;;;4913526;29;20569;-73
2022/11/09 08:47:34;;;;;;;27.45;15.38;;;;;;;;;;4913616;29;20088;-74
2022/11/09 08:50:00;;;;;;;19.52;13.52;;;;;;;;;;4914315;29;20024;-73
2022/11/09 08:52:26;;;;;;;29.48;15.73;;;;;;;;;;4913822;29;20127;-74
2022/11/09 08:54:52;;;;;;;21.35;13.80;;;;;;;;;;4913855;29;20194;-74
2022/11/09 08:57:18;;;;;;;23.80;15.23;;;;;;;;;;4913205;29;20040;-74
2022/11/09 08:59:44;;;;;;;23.70;13.82;;;;;;;;;;4912945;29;20084;-72
2022/11/09 09:02:10;;;;;;;18.65;10.98;;;;;;;;;;4912680;29;20245;-74
2022/11/09 09:04:36;;;;;;;23.40;14.05;;;;;;;;;;4911362;29;20584;-74
2022/11/09 09:07:02;;;;;;;16.98;11.27;;;;;;;;;;4912619;29;20058;-73
2022/11/09 09:09:28;;;;;;;19.52;12.35;;;;;;;;;;4912748;29;20040;-73
2022/11/09 09:11:54;;;;;;;18.38;12.73;;;;;;;;;;4912965;29;20048;-72
2022/11/09 09:14:20;;;;;;;28.13;17.42;;;;;;;;;;4912783;29;20111;-73
2022/11/09 09:16:46;;;;;;;19.48;12.48;;;;;;;;;;4912150;29;20505;-74
2022/11/09 09:19:12;;;;;;;21.55;14.35;;;;;;;;;;4912786;29;20036;-72
2022/11/09 09:21:38;;;;;;;17.23;12.40;;;;;;;;;;4913321;29;20127;-73
2022/11/09 09:24:04;;;;;;;17.42;13.30;;;;;;;;;;4912251;29;20028;-74
2022/11/09 09:26:31;;;;;;;18.73;13.80;;;;;;;;;;4927132;29;20066;-73
2022/11/09 09:28:57;;;;;;;16.85;12.07;;;;;;;;;;4911369;29;20024;-73
2022/11/09 09:31:23;;;;;;;16.20;13.32;;;;;;;;;;4913055;29;20489;-74
2022/11/09 09:33:49;;;;;;;19.52;13.00;;;;;;;;;;4912827;29;20032;-74
2022/11/09 09:36:21;;;;;;;19.15;14.07;;;;;;;;;;4912697;29;20043;-71
2022/11/09 09:38:50;;;;;;;21.35;13.00;;;;;;;;;;4913723;29;20039;-74
2022/11/09 09:41:27;;;;;;;17.13;12.00;;;;;;;;;;4880457;29;20130;-74
2022/11/09 09:43:54;;;;;;;19.23;13.48;;;;;;;;;;4911625;29;20414;-73
2022/11/09 09:46:31;;;;;;;19.08;10.82;;;;;;;;;;4910710;29;20047;-73
2022/11/09 09:49:06;;;;;;;18.55;11.23;;;;;;;;;;4909944;29;20047;-73
2022/11/09 09:51:33;;;;;;;24.73;14.90;;;;;;;;;;4887095;29;20040;-75
2022/11/09 09:54:02;;;;;;;25.30;14.20;;;;;;;;;;4911155;29;20412;-74
2022/11/09 09:56:32;;;;;;;25.95;14.43;;;;;;;;;;4914054;29;20064;-73
2022/11/09 09:59:17;;;;;;;23.15;13.82;;;;;;;;;;4917629;29;20047;-74
2022/11/09 10:01:43;;;;;;;28.55;16.08;;;;;;;;;;4917125;29;20044;-74
2022/11/09 10:04:18;;;;;;;27.65;14.57;;;;;;;;;;4913375;29;20127;-72
2022/11/09 10:06:46;;;;;;;21.30;13.23;;;;;;;;;;4912611;29;20044;-73
2022/11/09 10:09:12;;;;;;;29.80;15.63;;;;;;;;;;4909441;29;20044;-72
2022/11/09 10:11:38;;;;;;;23.13;13.68;;;;;;;;;;4927377;29;20032;-73
2022/11/09 10:14:23;;;;;;;24.50;15.05;;;;;;;;;;4895532;29;20028;-74
2022/11/09 10:16:52;;;;;;;26.73;14.48;;;;;;;;;;4912462;29;20524;-73
2022/11/09 10:19:24;;;;;;;31.52;17.38;;;;;;;;;;4912201;29;20087;-73
2022/11/09 10:22:02;;;;;;;30.15;16.85;;;;;;;;;;4908995;29;20044;-72
2022/11/09 10:24:38;;;;;;;30.48;16.40;;;;;;;;;;4909394;29;20040;-73
2022/11/09 10:27:09;;;;;;;18.70;11.38;;;;;;;;;;4919009;29;20130;-73
2022/11/09 10:29:36;;;;;;;29.10;15.95;;;;;;;;;;4907496;29;20036;-74
2022/11/09 10:32:13;;;;;;;30.75;16.40;;;;;;;;;;4910262;29;20039;-74
2022/11/09 10:34:42;;;;;;;33.50;17.63;;;;;;;;;;4910503;29;20114;-74
2022/11/09 10:37:13;;;;;;;24.25;15.55;;;;;;;;;;4910071;29;20040;-72
2022/11/09 10:39:46;;;;;;;32.38;17.13;;;;;;;;;;4894381;29;20040;-72
2022/11/09 10:42:31;;;;;;;24.48;14.80;;;;;;;;;;4910531;29;20127;-72
2022/11/09 10:45:20;;;;;;;30.08;16.75;;;;;;;;;;4910175;29;20059;-72
2022/11/09 10:48:05;;;;;;;30.23;17.83;;;;;;;;;;4908033;29;20111;-73
2022/11/09 10:50:52;;;;;;;22.75;13.38;;;;;;;;;;4919333;29;20115;-73
2022/11/09 10:53:38;;;;;;;23.40;13.45;;;;;;;;;;4887914;29;20045;-73
2022/11/09 10:56:22;;;;;;;23.35;12.93;;;;;;;;;;4924101;29;20056;-73
2022/11/09 10:59:43;;;;;;;22.70;13.60;;;;;;;;;;4909959;29;20051;-72
2022/11/09 11:02:27;;;;;;;22.10;14.98;;;;;;;;;;4889774;29;20063;-73
2022/11/09 11:05:16;;;;;;;23.90;15.02;;;;;;;;;;4909709;29;20448;-73
2022/11/09 11:08:10;;;;;;;20.38;13.10;;;;;;;;;;4909453;29;20052;-73
2022/11/09 11:11:05;;;;;;;14.38;9.52;;;;;;;;;;4909547;29;20032;-73
2022/11/09 11:13:50;;;;;;;25.42;14.27;;;;;;;;;;4909613;29;20040;-73
2022/11/09 11:16:35;;;;;;;18.42;12.48;;;;;;;;;;4911307;29;20059;-73
2022/11/09 11:19:49;;;;;;;24.67;14.82;;;;;;;;;;4906507;29;20032;-73
2022/11/09 11:22:34;;;;;;;28.23;15.00;;;;;;;;;;4918662;29;20046;-73
2022/11/09 11:25:19;;;;;;;11.13;9.13;;;;;;;;;;4920558;29;20044;-73
2022/11/09 11:28:20;;;;;;;18.40;9.85;;;;;;;;;;4915928;29;20040;-74
2022/11/09 11:31:06;;;;;;;11.43;9.20;;;;;;;;;;4910109;29;21006;-73
2022/11/09 11:33:50;;;;;;;19.85;11.73;;;;;;;;;;4896522;29;20552;-72
2022/11/09 11:36:48;;;;;;;22.98;13.30;;;;;;;;;;4909731;29;20032;-73
2022/11/09 11:39:35;;;;;;;25.23;15.60;;;;;;;;;;4910439;29;20032;-73
2022/11/09 11:42:26;;;;;;;17.58;12.43;;;;;;;;;;4909357;29;20125;-73
2022/11/09 11:45:34;;;;;;;17.38;11.57;;;;;;;;;;4907028;29;20047;-73
2022/11/09 11:48:37;;;;;;;18.58;12.48;;;;;;;;;;4924762;29;20043;-73
2022/11/09 11:51:24;;;;;;;24.08;11.98;;;;;;;;;;4910000;29;20197;-73
2022/11/09 11:54:27;;;;;;;22.08;12.82;;;;;;;;;;4910283;29;20048;-73
2022/11/09 11:57:33;;;;;;;23.23;13.88;;;;;;;;;;4910482;29;20087;-73
2022/11/09 12:00:18;;;;;;;15.77;12.68;;;;;;;;;;4909556;29;20040;-72
2022/11/09 12:03:11;;;;;;;12.80;10.27;;;;;;;;;;4907325;29;20032;-73
2022/11/09 12:06:07;;;;;;;19.90;14.52;;;;;;;;;;4891059;29;20063;-73
2022/11/09 12:08:58;;;;;;;18.98;12.40;;;;;;;;;;4910271;29;20032;-73
2022/11/09 12:11:47;;;;;;;20.90;13.70;;;;;;;;;;4910634;29;20036;-73
2022/11/09 12:14:34;;;;;;;16.92;10.88;;;;;;;;;;4909849;29;20272;-73
2022/11/09 12:17:28;;;;;;;18.27;13.43;;;;;;;;;;4910396;29;20044;-73
2022/11/09 12:20:12;;;;;;;22.77;14.57;;;;;;;;;;4910143;29;20044;-73
2022/11/09 12:23:15;;;;;;;18.10;12.23;;;;;;;;;;4914059;29;20057;-74
2022/11/09 12:26:16;;;;;;;20.75;14.23;;;;;;;;;;4920446;29;20659;-73
2022/11/09 12:29:01;;;;;;;21.75;15.57;;;;;;;;;;4911311;29;20144;-73
2022/11/09 12:31:45;;;;;;;25.25;12.55;;;;;;;;;;4910534;29;20524;-75
2022/11/09 12:34:30;;;;;;;15.73;12.02;;;;;;;;;;4909354;29;20039;-75
2022/11/09 12:37:23;;;;;;;19.67;14.05;;;;;;;;;;4908066;29;20095;-75
2022/11/09 12:40:16;;;;;;;23.35;14.10;;;;;;;;;;4907744;29;20043;-74
2022/11/09 12:43:14;;;;;;;12.90;9.30;;;;;;;;;;4910018;29;20607;-74
2022/11/09 12:45:59;;;;;;;22.02;14.65;;;;;;;;;;4911549;29;20131;-74
2022/11/09 12:48:43;;;;;;;14.45;10.88;;;;;;;;;;4915033;29;20123;-74
2022/11/09 12:51:28;;;;;;;20.80;13.93;;;;;;;;;;4912793;29;20048;-75
2022/11/09 12:54:12;;;;;;;23.98;16.02;;;;;;;;;;4914615;29;20029;-75
2022/11/09 12:56:58;;;;;;;23.25;13.38;;;;;;;;;;4913931;29;20040;-75
2022/11/09 12:59:46;;;;;;;19.35;14.35;;;;;;;;;;4913067;29;20564;-75
2022/11/09 13:02:32;;;;;;;21.65;13.75;;;;;;;;;;4911942;29;20032;-74
2022/11/09 13:05:30;;;;;;;26.70;16.77;;;;;;;;;;4910919;29;20080;-76
2022/11/09 13:08:25;;;;;;;21.00;14.63;;;;;;;;;;4914532;29;20565;-75
2022/11/09 13:11:28;;;;;;;18.38;12.98;;;;;;;;;;4905906;29;20421;-75
2022/11/09 13:14:22;;;;;;;17.17;13.45;;;;;;;;;;4928223;29;20073;-75
2022/11/09 13:17:24;;;;;;;18.10;13.35;;;;;;;;;;4926869;29;20029;-77
2022/11/09 13:20:29;;;;;;;18.58;13.13;;;;;;;;;;4913455;29;20587;-74
2022/11/09 13:23:24;;;;;;;15.57;11.57;;;;;;;;;;4927554;29;20040;-75
2022/11/09 13:26:22;;;;;;;17.50;13.15;;;;;;;;;;4913548;29;20479;-75
2022/11/09 13:29:23;;;;;;;14.60;13.05;;;;;;;;;;4912508;29;20172;-76
2022/11/09 13:32:10;;;;;;;18.27;13.73;;;;;;;;;;4911289;29;20139;-75
2022/11/09 13:34:58;;;;;;;15.35;11.57;;;;;;;;;;4908700;29;20381;-73
2022/11/09 13:37:44;;;;;;;18.52;11.43;;;;;;;;;;4911367;29;20036;-73
2022/11/09 13:40:32;;;;;;;11.45;9.30;;;;;;;;;;4911138;29;20114;-73
2022/11/09 13:43:21;;;;;;;10.82;9.68;;;;;;;;;;4925199;29;20545;-74
2022/11/09 13:46:43;;;;;;;17.17;12.15;;;;;;;;;;4907667;29;20040;-74
2022/11/09 13:49:38;;;;;;;16.25;12.15;;;;;;;;;;4811112;29;20053;-74
2022/11/09 13:52:42;;;;;;;19.10;15.05;;;;;;;;;;4811332;29;20066;-73
2022/11/09 13:55:39;;;;;;;17.58;11.70;;;;;;;;;;4909872;29;20556;-74
2022/11/09 13:58:26;;;;;;;17.45;13.43;;;;;;;;;;4902180;29;20044;-73
2022/11/09 14:01:29;;;;;;;18.10;14.55;;;;;;;;;;4910168;29;20079;-73
2022/11/09 14:04:20;;;;;;;15.60;11.98;;;;;;;;;;4907976;29;20036;-74
2022/11/09 14:07:05;;;;;;;18.50;12.77;;;;;;;;;;4912421;29;20072;-74
2022/11/09 14:09:52;;;;;;;24.40;13.88;;;;;;;;;;4909852;29;20036;-73
2022/11/09 14:12:47;;;;;;;20.55;13.45;;;;;;;;;;4910092;29;20032;-75
2022/11/09 14:15:41;;;;;;;17.02;10.93;;;;;;;;;;4911994;29;20036;-75
2022/11/09 14:18:44;;;;;;;20.48;11.35;;;;;;;;;;4910289;29;20032;-73
2022/11/09 14:21:35;;;;;;;21.60;14.95;;;;;;;;;;4911535;29;20050;-73
2022/11/09 14:24:24;;;;;;;18.23;13.50;;;;;;;;;;4912133;29;20051;-74
2022/11/09 14:27:09;;;;;;;23.73;15.63;;;;;;;;;;4897150;29;20064;-73
2022/11/09 14:29:53;;;;;;;32.22;19.50;;;;;;;;;;4911858;29;20172;-73
2022/11/09 14:32:38;;;;;;;23.42;16.98;;;;;;;;;;4911521;29;20040;-73
2022/11/09 14:35:22;;;;;;;28.08;19.50;;;;;;;;;;4909912;29;20060;-74
2022/11/09 14:38:20;;;;;;;27.17;15.63;;;;;;;;;;4908544;29;20047;-73
2022/11/09 14:41:04;;;;;;;25.20;15.55;;;;;;;;;;4909145;29;20029;-74
2022/11/09 14:43:49;;;;;;;21.58;14.32;;;;;;;;;;4911512;29;20024;-73
2022/11/09 14:46:33;;;;;;;26.33;16.77;;;;;;;;;;4911366;29;20525;-73
2022/11/09 14:49:19;;;;;;;24.23;16.55;;;;;;;;;;4911715;29;20036;-74
2022/11/09 14:52:04;;;;;;;29.58;17.90;;;;;;;;;;4908053;29;20059;-74
2022/11/09 14:54:48;;;;;;;31.08;18.75;;;;;;;;;;4909597;29;20111;-73
2022/11/09 14:57:33;;;;;;;27.15;17.95;;;;;;;;;;4907779;29;20140;-74